Terminal Aerodrome Forecast
Issued by NWS

Home | Current Version | Previous Version | Text Only | Print | Product List | Glossary Off
Versions: 1 2 3 4 5 6 7 8 9 10 11 12 13

000
FTUS45 KGGW 230528
TAFGDV
TAF
KGDV 230528Z 2306/2406 VRB06KT P6SM SCT150
     FM231500 24011KT P6SM SCT250
     FM231800 24016G24KT P6SM SCT200
     FM240300 29009KT P6SM BKN150
      AMD LTD TO CLD VIS AND WIND=

USA.gov is the U.S. government's official web portal to all federal, state and local government web resources and services.